Terminal Aerodrome Forecast
Issued by NWS

Home | Current Version | Previous Version | Text Only | Print | Product List | Glossary On
Versions: 1 2 3 4 5 6 7 8 9 10 11 12 13 14
000
FTUS43 KIND 081720
TAFHUF
TAF
KHUF 081720Z 0818/0918 30015G25KT 4SM -SHSN SCT009 OVC015
      TEMPO 0818/0819 1 1/2SM -SN BR
     FM082300 29010G19KT P6SM VCSH SCT015 OVC025
     FM090800 29009G20KT 3SM -SHSN BR OVC015=

USA.gov is the U.S. government's official web portal to all federal, state and local government web resources and services.